sensor_id;sensor_type;location;lat;lon;timestamp;P1;durP1;ratioP1;P2;durP2;ratioP2
11431;SDS011;5772;50.940;6.782;2022-10-13T00:00:10;36.87;;;34.40;;
11431;SDS011;5772;50.940;6.782;2022-10-13T00:02:35;37.23;;;34.83;;
11431;SDS011;5772;50.940;6.782;2022-10-13T00:05:01;36.87;;;34.70;;
11431;SDS011;5772;50.940;6.782;2022-10-13T00:07:27;37.23;;;34.87;;
11431;SDS011;5772;50.940;6.782;2022-10-13T00:09:53;34.77;;;32.57;;
11431;SDS011;5772;50.940;6.782;2022-10-13T00:12:18;37.03;;;34.57;;
11431;SDS011;5772;50.940;6.782;2022-10-13T00:14:44;36.50;;;34.23;;
11431;SDS011;5772;50.940;6.782;2022-10-13T00:17:09;35.07;;;32.87;;
11431;SDS011;5772;50.940;6.782;2022-10-13T00:19:35;34.10;;;32.30;;
11431;SDS011;5772;50.940;6.782;2022-10-13T00:22:00;35.43;;;33.33;;
11431;SDS011;5772;50.940;6.782;2022-10-13T00:24:27;34.40;;;32.13;;
11431;SDS011;5772;50.940;6.782;2022-10-13T00:26:52;35.20;;;33.10;;
11431;SDS011;5772;50.940;6.782;2022-10-13T00:29:17;34.57;;;32.27;;
11431;SDS011;5772;50.940;6.782;2022-10-13T00:31:43;34.33;;;32.47;;
11431;SDS011;5772;50.940;6.782;2022-10-13T00:34:08;32.33;;;30.47;;
11431;SDS011;5772;50.940;6.782;2022-10-13T00:36:34;35.10;;;32.70;;
11431;SDS011;5772;50.940;6.782;2022-10-13T00:38:59;33.07;;;31.17;;
11431;SDS011;5772;50.940;6.782;2022-10-13T00:41:26;33.13;;;30.83;;
11431;SDS011;5772;50.940;6.782;2022-10-13T00:43:53;34.20;;;32.00;;
11431;SDS011;5772;50.940;6.782;2022-10-13T00:46:19;32.23;;;30.03;;
11431;SDS011;5772;50.940;6.782;2022-10-13T00:48:45;35.17;;;32.90;;
11431;SDS011;5772;50.940;6.782;2022-10-13T00:51:12;31.93;;;30.10;;
11431;SDS011;5772;50.940;6.782;2022-10-13T00:53:39;32.33;;;30.30;;
11431;SDS011;5772;50.940;6.782;2022-10-13T00:56:05;32.63;;;30.33;;
11431;SDS011;5772;50.940;6.782;2022-10-13T00:58:33;33.07;;;30.80;;
11431;SDS011;5772;50.940;6.782;2022-10-13T01:00:59;31.63;;;29.67;;
11431;SDS011;5772;50.940;6.782;2022-10-13T01:03:25;30.67;;;28.63;;
11431;SDS011;5772;50.940;6.782;2022-10-13T01:05:51;30.40;;;28.43;;
11431;SDS011;5772;50.940;6.782;2022-10-13T01:08:18;31.27;;;29.50;;
11431;SDS011;5772;50.940;6.782;2022-10-13T01:10:46;32.73;;;30.60;;
11431;SDS011;5772;50.940;6.782;2022-10-13T01:13:20;32.83;;;30.53;;
11431;SDS011;5772;50.940;6.782;2022-10-13T01:15:50;33.53;;;31.63;;
11431;SDS011;5772;50.940;6.782;2022-10-13T01:18:19;32.23;;;29.93;;
11431;SDS011;5772;50.940;6.782;2022-10-13T01:26:41;31.57;;;29.67;;
11431;SDS011;5772;50.940;6.782;2022-10-13T01:29:28;32.60;;;30.70;;
11431;SDS011;5772;50.940;6.782;2022-10-13T01:32:22;33.27;;;31.07;;
11431;SDS011;5772;50.940;6.782;2022-10-13T01:34:51;34.87;;;32.53;;
11431;SDS011;5772;50.940;6.782;2022-10-13T01:37:19;35.10;;;32.90;;
11431;SDS011;5772;50.940;6.782;2022-10-13T01:39:48;33.87;;;32.00;;
11431;SDS011;5772;50.940;6.782;2022-10-13T01:42:18;34.77;;;32.60;;
11431;SDS011;5772;50.940;6.782;2022-10-13T01:44:47;36.07;;;33.77;;
11431;SDS011;5772;50.940;6.782;2022-10-13T01:47:16;36.77;;;34.97;;
11431;SDS011;5772;50.940;6.782;2022-10-13T01:49:43;35.57;;;33.37;;
11431;SDS011;5772;50.940;6.782;2022-10-13T01:52:10;36.70;;;34.40;;
11431;SDS011;5772;50.940;6.782;2022-10-13T01:54:37;37.07;;;34.90;;
11431;SDS011;5772;50.940;6.782;2022-10-13T01:57:02;40.80;;;38.53;;
11431;SDS011;5772;50.940;6.782;2022-10-13T01:59:28;38.30;;;36.27;;
11431;SDS011;5772;50.940;6.782;2022-10-13T02:01:58;36.57;;;34.13;;
11431;SDS011;5772;50.940;6.782;2022-10-13T02:04:33;36.90;;;34.63;;
11431;SDS011;5772;50.940;6.782;2022-10-13T02:07:05;35.00;;;33.10;;
11431;SDS011;5772;50.940;6.782;2022-10-13T02:09:34;35.57;;;33.43;;
11431;SDS011;5772;50.940;6.782;2022-10-13T02:12:06;35.37;;;33.43;;
11431;SDS011;5772;50.940;6.782;2022-10-13T02:14:34;34.77;;;32.53;;
11431;SDS011;5772;50.940;6.782;2022-10-13T02:17:03;34.93;;;33.03;;
11431;SDS011;5772;50.940;6.782;2022-10-13T02:19:31;36.00;;;34.13;;
11431;SDS011;5772;50.940;6.782;2022-10-13T02:21:59;34.63;;;32.53;;
11431;SDS011;5772;50.940;6.782;2022-10-13T02:24:24;35.07;;;33.07;;
11431;SDS011;5772;50.940;6.782;2022-10-13T02:26:50;36.73;;;34.10;;
11431;SDS011;5772;50.940;6.782;2022-10-13T02:29:16;33.67;;;31.10;;
11431;SDS011;5772;50.940;6.782;2022-10-13T02:31:42;33.80;;;31.90;;
11431;SDS011;5772;50.940;6.782;2022-10-13T02:34:07;34.87;;;32.77;;
11431;SDS011;5772;50.940;6.782;2022-10-13T02:36:35;34.43;;;32.67;;
11431;SDS011;5772;50.940;6.782;2022-10-13T02:39:01;34.47;;;32.63;;
11431;SDS011;5772;50.940;6.782;2022-10-13T02:41:26;35.07;;;32.77;;
11431;SDS011;5772;50.940;6.782;2022-10-13T02:43:51;35.90;;;33.83;;
11431;SDS011;5772;50.940;6.782;2022-10-13T02:46:17;35.47;;;33.43;;
11431;SDS011;5772;50.940;6.782;2022-10-13T02:48:42;37.03;;;34.97;;
11431;SDS011;5772;50.940;6.782;2022-10-13T02:51:07;34.93;;;33.13;;
11431;SDS011;5772;50.940;6.782;2022-10-13T02:53:34;35.00;;;33.20;;
11431;SDS011;5772;50.940;6.782;2022-10-13T02:55:59;35.63;;;33.83;;
11431;SDS011;5772;50.940;6.782;2022-10-13T02:58:25;36.83;;;34.67;;
11431;SDS011;5772;50.940;6.782;2022-10-13T03:00:50;36.60;;;34.63;;
11431;SDS011;5772;50.940;6.782;2022-10-13T03:03:16;36.87;;;34.77;;
11431;SDS011;5772;50.940;6.782;2022-10-13T03:05:41;37.27;;;35.27;;
11431;SDS011;5772;50.940;6.782;2022-10-13T03:08:06;35.53;;;33.63;;
11431;SDS011;5772;50.940;6.782;2022-10-13T03:10:33;38.37;;;36.20;;
11431;SDS011;5772;50.940;6.782;2022-10-13T03:12:58;36.43;;;34.40;;
11431;SDS011;5772;50.940;6.782;2022-10-13T03:15:24;36.13;;;34.33;;
11431;SDS011;5772;50.940;6.782;2022-10-13T03:17:49;35.07;;;33.37;;
11431;SDS011;5772;50.940;6.782;2022-10-13T03:20:15;37.10;;;34.97;;
11431;SDS011;5772;50.940;6.782;2022-10-13T03:22:41;36.60;;;34.60;;
11431;SDS011;5772;50.940;6.782;2022-10-13T03:25:06;35.33;;;33.40;;
11431;SDS011;5772;50.940;6.782;2022-10-13T03:27:33;37.00;;;34.80;;
11431;SDS011;5772;50.940;6.782;2022-10-13T03:29:58;34.37;;;32.57;;
11431;SDS011;5772;50.940;6.782;2022-10-13T03:32:24;36.00;;;33.80;;
11431;SDS011;5772;50.940;6.782;2022-10-13T03:34:49;33.43;;;31.30;;
11431;SDS011;5772;50.940;6.782;2022-10-13T03:37:15;34.63;;;32.67;;
11431;SDS011;5772;50.940;6.782;2022-10-13T03:39:40;33.23;;;31.50;;
11431;SDS011;5772;50.940;6.782;2022-10-13T03:42:05;35.47;;;33.67;;
11431;SDS011;5772;50.940;6.782;2022-10-13T03:44:32;34.07;;;31.33;;
11431;SDS011;5772;50.940;6.782;2022-10-13T03:46:57;31.70;;;30.03;;
11431;SDS011;5772;50.940;6.782;2022-10-13T03:49:23;33.07;;;30.80;;
11431;SDS011;5772;50.940;6.782;2022-10-13T03:51:48;31.50;;;29.83;;
11431;SDS011;5772;50.940;6.782;2022-10-13T03:54:13;32.13;;;30.43;;
11431;SDS011;5772;50.940;6.782;2022-10-13T03:56:39;31.50;;;29.80;;
11431;SDS011;5772;50.940;6.782;2022-10-13T03:59:05;31.63;;;29.83;;
11431;SDS011;5772;50.940;6.782;2022-10-13T04:01:32;33.20;;;31.17;;
11431;SDS011;5772;50.940;6.782;2022-10-13T04:03:59;31.20;;;29.47;;
11431;SDS011;5772;50.940;6.782;2022-10-13T04:06:25;31.37;;;29.47;;
11431;SDS011;5772;50.940;6.782;2022-10-13T04:08:50;31.40;;;29.50;;
11431;SDS011;5772;50.940;6.782;2022-10-13T04:11:16;30.23;;;28.63;;
11431;SDS011;5772;50.940;6.782;2022-10-13T04:13:42;29.23;;;27.63;;
11431;SDS011;5772;50.940;6.782;2022-10-13T04:16:08;28.30;;;26.73;;
11431;SDS011;5772;50.940;6.782;2022-10-13T04:18:38;29.00;;;27.43;;
11431;SDS011;5772;50.940;6.782;2022-10-13T04:21:06;27.73;;;26.17;;
11431;SDS011;5772;50.940;6.782;2022-10-13T04:23:32;27.40;;;25.90;;
11431;SDS011;5772;50.940;6.782;2022-10-13T04:25:57;27.77;;;26.17;;
11431;SDS011;5772;50.940;6.782;2022-10-13T04:28:23;28.17;;;26.37;;
11431;SDS011;5772;50.940;6.782;2022-10-13T04:30:48;28.17;;;26.57;;
11431;SDS011;5772;50.940;6.782;2022-10-13T04:33:13;30.07;;;28.13;;
11431;SDS011;5772;50.940;6.782;2022-10-13T04:35:40;29.77;;;28.07;;
11431;SDS011;5772;50.940;6.782;2022-10-13T04:38:06;31.77;;;29.97;;
11431;SDS011;5772;50.940;6.782;2022-10-13T04:40:31;31.53;;;29.53;;
11431;SDS011;5772;50.940;6.782;2022-10-13T04:42:57;32.47;;;30.40;;
11431;SDS011;5772;50.940;6.782;2022-10-13T04:45:23;33.40;;;31.20;;
11431;SDS011;5772;50.940;6.782;2022-10-13T04:47:48;32.90;;;31.20;;
11431;SDS011;5772;50.940;6.782;2022-10-13T04:50:13;34.97;;;32.97;;
11431;SDS011;5772;50.940;6.782;2022-10-13T04:52:40;36.57;;;34.30;;
11431;SDS011;5772;50.940;6.782;2022-10-13T04:55:06;36.30;;;34.47;;
11431;SDS011;5772;50.940;6.782;2022-10-13T04:57:31;37.10;;;34.77;;
11431;SDS011;5772;50.940;6.782;2022-10-13T04:59:57;34.97;;;33.37;;
11431;SDS011;5772;50.940;6.782;2022-10-13T05:02:22;34.77;;;32.87;;
11431;SDS011;5772;50.940;6.782;2022-10-13T05:04:48;35.67;;;33.77;;
11431;SDS011;5772;50.940;6.782;2022-10-13T05:07:13;34.53;;;32.73;;
11431;SDS011;5772;50.940;6.782;2022-10-13T05:09:40;123.23;;;71.20;;
11431;SDS011;5772;50.940;6.782;2022-10-13T05:12:05;34.67;;;32.37;;
11431;SDS011;5772;50.940;6.782;2022-10-13T05:14:31;35.60;;;33.60;;
11431;SDS011;5772;50.940;6.782;2022-10-13T05:16:57;35.03;;;32.93;;
11431;SDS011;5772;50.940;6.782;2022-10-13T05:19:22;34.50;;;32.50;;
11431;SDS011;5772;50.940;6.782;2022-10-13T05:21:47;36.70;;;34.57;;
11431;SDS011;5772;50.940;6.782;2022-10-13T05:24:13;34.60;;;32.60;;
11431;SDS011;5772;50.940;6.782;2022-10-13T05:26:40;35.63;;;33.67;;
11431;SDS011;5772;50.940;6.782;2022-10-13T05:29:05;35.00;;;33.20;;
11431;SDS011;5772;50.940;6.782;2022-10-13T05:31:31;35.10;;;33.07;;
11431;SDS011;5772;50.940;6.782;2022-10-13T05:33:58;34.30;;;32.13;;
11431;SDS011;5772;50.940;6.782;2022-10-13T05:36:24;34.40;;;32.60;;
11431;SDS011;5772;50.940;6.782;2022-10-13T05:38:51;33.50;;;31.50;;
11431;SDS011;5772;50.940;6.782;2022-10-13T05:41:17;35.27;;;32.43;;
11431;SDS011;5772;50.940;6.782;2022-10-13T05:43:45;35.87;;;32.53;;
11431;SDS011;5772;50.940;6.782;2022-10-13T05:46:10;36.30;;;33.80;;
11431;SDS011;5772;50.940;6.782;2022-10-13T05:48:36;38.07;;;35.67;;
11431;SDS011;5772;50.940;6.782;2022-10-13T05:51:02;39.27;;;36.77;;
11431;SDS011;5772;50.940;6.782;2022-10-13T05:53:31;38.97;;;36.67;;
11431;SDS011;5772;50.940;6.782;2022-10-13T05:56:02;38.37;;;36.07;;
11431;SDS011;5772;50.940;6.782;2022-10-13T05:58:30;40.47;;;38.00;;
11431;SDS011;5772;50.940;6.782;2022-10-13T06:00:57;40.87;;;37.80;;
11431;SDS011;5772;50.940;6.782;2022-10-13T06:03:23;38.70;;;35.83;;
11431;SDS011;5772;50.940;6.782;2022-10-13T06:05:48;36.60;;;34.60;;
11431;SDS011;5772;50.940;6.782;2022-10-13T06:08:14;39.07;;;36.57;;
11431;SDS011;5772;50.940;6.782;2022-10-13T06:10:39;40.03;;;37.63;;
11431;SDS011;5772;50.940;6.782;2022-10-13T06:13:05;41.00;;;38.40;;
11431;SDS011;5772;50.940;6.782;2022-10-13T06:15:31;40.90;;;38.13;;
11431;SDS011;5772;50.940;6.782;2022-10-13T06:17:57;37.97;;;35.33;;
11431;SDS011;5772;50.940;6.782;2022-10-13T06:20:23;36.57;;;34.07;;
11431;SDS011;5772;50.940;6.782;2022-10-13T06:22:48;34.87;;;32.60;;
11431;SDS011;5772;50.940;6.782;2022-10-13T06:25:14;35.00;;;32.97;;
11431;SDS011;5772;50.940;6.782;2022-10-13T06:27:39;33.47;;;30.93;;
11431;SDS011;5772;50.940;6.782;2022-10-13T06:30:05;32.20;;;30.00;;
11431;SDS011;5772;50.940;6.782;2022-10-13T06:32:31;32.73;;;30.60;;
11431;SDS011;5772;50.940;6.782;2022-10-13T06:34:58;35.27;;;32.83;;
11431;SDS011;5772;50.940;6.782;2022-10-13T06:37:24;34.03;;;31.83;;
11431;SDS011;5772;50.940;6.782;2022-10-13T06:39:49;35.67;;;33.47;;
11431;SDS011;5772;50.940;6.782;2022-10-13T06:42:14;56.50;;;49.57;;
11431;SDS011;5772;50.940;6.782;2022-10-13T06:44:40;35.87;;;33.27;;
11431;SDS011;5772;50.940;6.782;2022-10-13T06:47:05;112.57;;;73.47;;
11431;SDS011;5772;50.940;6.782;2022-10-13T06:49:30;34.53;;;32.37;;
11431;SDS011;5772;50.940;6.782;2022-10-13T06:51:57;33.50;;;31.50;;
11431;SDS011;5772;50.940;6.782;2022-10-13T06:54:23;34.33;;;31.83;;
11431;SDS011;5772;50.940;6.782;2022-10-13T06:56:48;34.77;;;32.23;;
11431;SDS011;5772;50.940;6.782;2022-10-13T06:59:13;32.77;;;30.30;;
11431;SDS011;5772;50.940;6.782;2022-10-13T07:01:39;35.10;;;32.57;;
11431;SDS011;5772;50.940;6.782;2022-10-13T07:04:04;36.43;;;33.93;;
11431;SDS011;5772;50.940;6.782;2022-10-13T07:06:30;36.40;;;33.97;;
11431;SDS011;5772;50.940;6.782;2022-10-13T07:08:57;40.40;;;37.30;;
11431;SDS011;5772;50.940;6.782;2022-10-13T07:11:22;38.30;;;36.00;;
11431;SDS011;5772;50.940;6.782;2022-10-13T07:13:47;34.70;;;32.73;;
11431;SDS011;5772;50.940;6.782;2022-10-13T07:16:13;34.53;;;32.37;;
11431;SDS011;5772;50.940;6.782;2022-10-13T07:18:39;31.37;;;29.37;;
11431;SDS011;5772;50.940;6.782;2022-10-13T07:21:04;34.80;;;32.70;;
11431;SDS011;5772;50.940;6.782;2022-10-13T07:23:29;32.57;;;30.53;;
11431;SDS011;5772;50.940;6.782;2022-10-13T07:25:56;41.90;;;38.97;;
11431;SDS011;5772;50.940;6.782;2022-10-13T07:28:22;41.70;;;38.97;;
11431;SDS011;5772;50.940;6.782;2022-10-13T07:30:47;42.83;;;40.07;;
11431;SDS011;5772;50.940;6.782;2022-10-13T07:33:13;28.57;;;26.33;;
11431;SDS011;5772;50.940;6.782;2022-10-13T07:35:38;32.90;;;31.00;;
11431;SDS011;5772;50.940;6.782;2022-10-13T07:38:05;45.03;;;42.57;;
11431;SDS011;5772;50.940;6.782;2022-10-13T07:40:30;43.27;;;40.00;;
11431;SDS011;5772;50.940;6.782;2022-10-13T07:42:57;36.43;;;33.83;;
11431;SDS011;5772;50.940;6.782;2022-10-13T07:45:22;29.13;;;27.40;;
11431;SDS011;5772;50.940;6.782;2022-10-13T07:47:48;27.67;;;25.77;;
11431;SDS011;5772;50.940;6.782;2022-10-13T07:50:16;27.50;;;25.70;;
11431;SDS011;5772;50.940;6.782;2022-10-13T07:52:42;29.87;;;27.90;;
11431;SDS011;5772;50.940;6.782;2022-10-13T07:55:08;32.30;;;30.03;;
11431;SDS011;5772;50.940;6.782;2022-10-13T07:57:33;33.00;;;30.80;;
11431;SDS011;5772;50.940;6.782;2022-10-13T08:00:00;31.67;;;29.67;;
11431;SDS011;5772;50.940;6.782;2022-10-13T08:02:25;30.83;;;28.80;;
11431;SDS011;5772;50.940;6.782;2022-10-13T08:04:51;29.37;;;27.27;;
11431;SDS011;5772;50.940;6.782;2022-10-13T08:07:16;29.20;;;26.77;;
11431;SDS011;5772;50.940;6.782;2022-10-13T08:09:42;26.03;;;24.30;;
11431;SDS011;5772;50.940;6.782;2022-10-13T08:12:08;27.43;;;25.33;;
11431;SDS011;5772;50.940;6.782;2022-10-13T08:14:33;27.90;;;26.03;;
11431;SDS011;5772;50.940;6.782;2022-10-13T08:17:00;28.60;;;26.63;;
11431;SDS011;5772;50.940;6.782;2022-10-13T08:19:26;31.17;;;28.97;;
11431;SDS011;5772;50.940;6.782;2022-10-13T08:21:52;31.33;;;29.40;;
11431;SDS011;5772;50.940;6.782;2022-10-13T08:24:18;35.10;;;32.90;;
11431;SDS011;5772;50.940;6.782;2022-10-13T08:26:44;35.53;;;32.90;;
11431;SDS011;5772;50.940;6.782;2022-10-13T08:29:10;32.23;;;29.73;;
11431;SDS011;5772;50.940;6.782;2022-10-13T08:31:36;28.70;;;26.63;;
11431;SDS011;5772;50.940;6.782;2022-10-13T08:34:02;29.13;;;27.23;;
11431;SDS011;5772;50.940;6.782;2022-10-13T08:36:28;27.90;;;26.40;;
11431;SDS011;5772;50.940;6.782;2022-10-13T08:38:53;27.50;;;25.97;;
11431;SDS011;5772;50.940;6.782;2022-10-13T08:41:19;29.57;;;27.53;;
11431;SDS011;5772;50.940;6.782;2022-10-13T08:43:47;31.67;;;29.47;;
11431;SDS011;5772;50.940;6.782;2022-10-13T08:46:14;31.67;;;29.60;;
11431;SDS011;5772;50.940;6.782;2022-10-13T08:48:43;27.60;;;26.07;;
11431;SDS011;5772;50.940;6.782;2022-10-13T08:51:12;26.17;;;24.43;;
11431;SDS011;5772;50.940;6.782;2022-10-13T08:53:39;27.13;;;25.73;;
11431;SDS011;5772;50.940;6.782;2022-10-13T08:56:06;27.50;;;26.00;;
11431;SDS011;5772;50.940;6.782;2022-10-13T08:58:34;23.33;;;22.10;;
11431;SDS011;5772;50.940;6.782;2022-10-13T09:01:05;21.70;;;20.40;;
11431;SDS011;5772;50.940;6.782;2022-10-13T09:03:37;24.57;;;23.07;;
11431;SDS011;5772;50.940;6.782;2022-10-13T09:06:09;22.90;;;21.50;;
11431;SDS011;5772;50.940;6.782;2022-10-13T09:08:38;22.67;;;21.50;;
11431;SDS011;5772;50.940;6.782;2022-10-13T09:11:08;24.03;;;22.83;;
11431;SDS011;5772;50.940;6.782;2022-10-13T09:13:34;20.17;;;19.03;;
11431;SDS011;5772;50.940;6.782;2022-10-13T09:15:59;22.53;;;21.00;;
11431;SDS011;5772;50.940;6.782;2022-10-13T09:18:26;21.47;;;20.27;;
11431;SDS011;5772;50.940;6.782;2022-10-13T09:20:56;21.83;;;20.67;;
11431;SDS011;5772;50.940;6.782;2022-10-13T09:23:34;22.97;;;21.27;;
11431;SDS011;5772;50.940;6.782;2022-10-13T09:26:00;22.90;;;21.20;;
11431;SDS011;5772;50.940;6.782;2022-10-13T09:28:31;23.33;;;21.73;;
11431;SDS011;5772;50.940;6.782;2022-10-13T09:31:00;24.10;;;22.70;;
11431;SDS011;5772;50.940;6.782;2022-10-13T09:33:26;23.27;;;21.93;;
11431;SDS011;5772;50.940;6.782;2022-10-13T09:36:08;24.10;;;22.80;;
11431;SDS011;5772;50.940;6.782;2022-10-13T09:38:39;24.57;;;23.20;;
11431;SDS011;5772;50.940;6.782;2022-10-13T09:41:10;24.13;;;22.57;;
11431;SDS011;5772;50.940;6.782;2022-10-13T09:43:40;21.30;;;19.70;;
11431;SDS011;5772;50.940;6.782;2022-10-13T09:46:10;21.60;;;20.33;;
11431;SDS011;5772;50.940;6.782;2022-10-13T09:48:36;21.60;;;19.90;;
11431;SDS011;5772;50.940;6.782;2022-10-13T09:51:02;22.50;;;21.10;;
11431;SDS011;5772;50.940;6.782;2022-10-13T09:53:29;21.60;;;20.20;;
11431;SDS011;5772;50.940;6.782;2022-10-13T09:56:08;20.63;;;19.23;;
11431;SDS011;5772;50.940;6.782;2022-10-13T09:58:37;18.95;;;17.95;;
11431;SDS011;5772;50.940;6.782;2022-10-13T10:01:07;16.88;;;15.98;;
11431;SDS011;5772;50.940;6.782;2022-10-13T10:03:36;17.02;;;16.08;;
11431;SDS011;5772;50.940;6.782;2022-10-13T10:06:03;16.30;;;15.48;;
11431;SDS011;5772;50.940;6.782;2022-10-13T10:08:32;15.60;;;14.70;;
11431;SDS011;5772;50.940;6.782;2022-10-13T10:11:00;15.65;;;14.68;;
11431;SDS011;5772;50.940;6.782;2022-10-13T10:13:29;16.17;;;14.77;;
11431;SDS011;5772;50.940;6.782;2022-10-13T10:15:54;15.18;;;14.18;;
11431;SDS011;5772;50.940;6.782;2022-10-13T10:18:24;15.55;;;14.30;;
11431;SDS011;5772;50.940;6.782;2022-10-13T10:20:58;14.80;;;13.82;;
11431;SDS011;5772;50.940;6.782;2022-10-13T10:23:32;14.57;;;13.75;;
11431;SDS011;5772;50.940;6.782;2022-10-13T10:26:03;14.43;;;13.73;;
11431;SDS011;5772;50.940;6.782;2022-10-13T10:28:45;15.93;;;14.70;;
11431;SDS011;5772;50.940;6.782;2022-10-13T10:31:19;15.30;;;14.30;;
11431;SDS011;5772;50.940;6.782;2022-10-13T10:33:52;14.10;;;13.30;;
11431;SDS011;5772;50.940;6.782;2022-10-13T10:36:22;13.90;;;12.98;;
11431;SDS011;5772;50.940;6.782;2022-10-13T10:38:52;15.05;;;13.95;;
11431;SDS011;5772;50.940;6.782;2022-10-13T10:41:25;14.90;;;14.00;;
11431;SDS011;5772;50.940;6.782;2022-10-13T10:44:02;14.73;;;13.93;;
11431;SDS011;5772;50.940;6.782;2022-10-13T10:46:33;15.88;;;14.85;;
11431;SDS011;5772;50.940;6.782;2022-10-13T10:49:00;16.75;;;15.85;;
11431;SDS011;5772;50.940;6.782;2022-10-13T10:51:29;16.23;;;15.43;;
11431;SDS011;5772;50.940;6.782;2022-10-13T10:53:57;16.48;;;15.57;;
11431;SDS011;5772;50.940;6.782;2022-10-13T10:56:29;16.92;;;16.02;;
11431;SDS011;5772;50.940;6.782;2022-10-13T10:59:00;16.58;;;15.48;;
11431;SDS011;5772;50.940;6.782;2022-10-13T11:01:32;17.23;;;16.33;;
11431;SDS011;5772;50.940;6.782;2022-10-13T11:04:05;18.07;;;17.20;;
11431;SDS011;5772;50.940;6.782;2022-10-13T11:06:54;19.47;;;18.27;;
11431;SDS011;5772;50.940;6.782;2022-10-13T11:12:22;19.97;;;18.97;;
11431;SDS011;5772;50.940;6.782;2022-10-13T11:14:55;17.17;;;16.30;;
11431;SDS011;5772;50.940;6.782;2022-10-13T11:17:27;16.63;;;15.73;;
11431;SDS011;5772;50.940;6.782;2022-10-13T11:19:53;16.80;;;15.80;;
11431;SDS011;5772;50.940;6.782;2022-10-13T11:22:19;18.07;;;17.13;;
11431;SDS011;5772;50.940;6.782;2022-10-13T11:24:46;22.33;;;20.77;;
11431;SDS011;5772;50.940;6.782;2022-10-13T11:35:56;23.30;;;22.00;;
11431;SDS011;5772;50.940;6.782;2022-10-13T11:38:22;25.77;;;24.37;;
11431;SDS011;5772;50.940;6.782;2022-10-13T11:43:40;20.83;;;19.73;;
11431;SDS011;5772;50.940;6.782;2022-10-13T11:46:23;20.23;;;18.80;;
11431;SDS011;5772;50.940;6.782;2022-10-13T11:48:54;19.60;;;18.57;;
11431;SDS011;5772;50.940;6.782;2022-10-13T11:51:38;18.63;;;17.63;;
11431;SDS011;5772;50.940;6.782;2022-10-13T11:54:13;19.93;;;18.73;;
11431;SDS011;5772;50.940;6.782;2022-10-13T11:56:44;19.77;;;18.67;;
11431;SDS011;5772;50.940;6.782;2022-10-13T11:59:18;19.57;;;18.20;;
11431;SDS011;5772;50.940;6.782;2022-10-13T12:01:46;19.17;;;17.83;;
11431;SDS011;5772;50.940;6.782;2022-10-13T12:04:12;18.10;;;17.10;;
11431;SDS011;5772;50.940;6.782;2022-10-13T12:06:38;17.60;;;16.60;;
11431;SDS011;5772;50.940;6.782;2022-10-13T12:09:04;18.17;;;17.07;;
11431;SDS011;5772;50.940;6.782;2022-10-13T12:11:40;17.23;;;16.30;;
11431;SDS011;5772;50.940;6.782;2022-10-13T12:14:06;18.17;;;17.17;;
11431;SDS011;5772;50.940;6.782;2022-10-13T12:16:32;19.50;;;18.23;;
11431;SDS011;5772;50.940;6.782;2022-10-13T12:19:15;17.87;;;16.87;;
11431;SDS011;5772;50.940;6.782;2022-10-13T12:21:49;18.00;;;17.10;;
11431;SDS011;5772;50.940;6.782;2022-10-13T12:24:15;16.93;;;16.03;;
11431;SDS011;5772;50.940;6.782;2022-10-13T12:26:41;17.80;;;16.80;;
11431;SDS011;5772;50.940;6.782;2022-10-13T12:29:09;17.87;;;16.97;;
11431;SDS011;5772;50.940;6.782;2022-10-13T12:31:37;17.77;;;16.67;;
11431;SDS011;5772;50.940;6.782;2022-10-13T12:34:15;19.97;;;18.77;;
11431;SDS011;5772;50.940;6.782;2022-10-13T12:36:42;16.33;;;15.50;;
11431;SDS011;5772;50.940;6.782;2022-10-13T12:39:10;17.87;;;16.90;;
11431;SDS011;5772;50.940;6.782;2022-10-13T12:41:38;18.87;;;17.47;;
11431;SDS011;5772;50.940;6.782;2022-10-13T12:44:06;18.73;;;17.53;;
11431;SDS011;5772;50.940;6.782;2022-10-13T12:46:35;18.10;;;17.10;;
11431;SDS011;5772;50.940;6.782;2022-10-13T12:49:04;18.77;;;17.67;;
11431;SDS011;5772;50.940;6.782;2022-10-13T12:51:31;19.63;;;18.53;;
11431;SDS011;5772;50.940;6.782;2022-10-13T12:53:57;20.30;;;19.20;;
11431;SDS011;5772;50.940;6.782;2022-10-13T12:56:25;21.20;;;19.80;;
11431;SDS011;5772;50.940;6.782;2022-10-13T12:58:52;18.83;;;17.83;;
11431;SDS011;5772;50.940;6.782;2022-10-13T13:01:20;19.30;;;18.17;;
11431;SDS011;5772;50.940;6.782;2022-10-13T13:03:52;20.07;;;18.90;;
11431;SDS011;5772;50.940;6.782;2022-10-13T13:06:24;19.43;;;17.80;;
11431;SDS011;5772;50.940;6.782;2022-10-13T13:09:16;20.27;;;18.87;;
11431;SDS011;5772;50.940;6.782;2022-10-13T13:11:44;21.73;;;20.33;;
11431;SDS011;5772;50.940;6.782;2022-10-13T13:17:01;20.93;;;19.57;;
11431;SDS011;5772;50.940;6.782;2022-10-13T13:19:29;22.33;;;20.93;;
11431;SDS011;5772;50.940;6.782;2022-10-13T13:21:55;20.33;;;18.93;;
11431;SDS011;5772;50.940;6.782;2022-10-13T13:24:21;20.87;;;19.57;;
11431;SDS011;5772;50.940;6.782;2022-10-13T13:26:47;20.57;;;19.27;;
11431;SDS011;5772;50.940;6.782;2022-10-13T13:29:12;20.43;;;19.13;;
11431;SDS011;5772;50.940;6.782;2022-10-13T13:31:37;19.87;;;18.83;;
11431;SDS011;5772;50.940;6.782;2022-10-13T13:34:03;20.73;;;19.50;;
11431;SDS011;5772;50.940;6.782;2022-10-13T13:36:28;22.23;;;20.77;;
11431;SDS011;5772;50.940;6.782;2022-10-13T13:38:54;21.33;;;20.00;;
11431;SDS011;5772;50.940;6.782;2022-10-13T13:41:21;21.97;;;20.57;;
11431;SDS011;5772;50.940;6.782;2022-10-13T13:43:47;22.23;;;21.00;;
11431;SDS011;5772;50.940;6.782;2022-10-13T13:46:14;23.20;;;21.40;;
11431;SDS011;5772;50.940;6.782;2022-10-13T13:48:40;23.57;;;22.17;;
11431;SDS011;5772;50.940;6.782;2022-10-13T13:51:06;23.53;;;22.03;;
11431;SDS011;5772;50.940;6.782;2022-10-13T13:53:32;25.63;;;24.13;;
11431;SDS011;5772;50.940;6.782;2022-10-13T13:55:57;22.50;;;21.20;;
11431;SDS011;5772;50.940;6.782;2022-10-13T13:58:24;26.27;;;24.70;;
11431;SDS011;5772;50.940;6.782;2022-10-13T14:00:49;26.63;;;25.03;;
11431;SDS011;5772;50.940;6.782;2022-10-13T14:03:15;27.30;;;25.43;;
11431;SDS011;5772;50.940;6.782;2022-10-13T14:05:40;28.17;;;26.63;;
11431;SDS011;5772;50.940;6.782;2022-10-13T14:08:06;27.40;;;25.50;;
11431;SDS011;5772;50.940;6.782;2022-10-13T14:10:32;31.23;;;29.23;;
11431;SDS011;5772;50.940;6.782;2022-10-13T14:12:57;31.27;;;29.67;;
11431;SDS011;5772;50.940;6.782;2022-10-13T14:15:24;35.27;;;33.17;;
11431;SDS011;5772;50.940;6.782;2022-10-13T14:17:52;37.63;;;35.43;;
11431;SDS011;5772;50.940;6.782;2022-10-13T14:20:18;39.67;;;37.57;;
11431;SDS011;5772;50.940;6.782;2022-10-13T14:22:44;39.27;;;36.77;;
11431;SDS011;5772;50.940;6.782;2022-10-13T14:25:09;44.77;;;42.13;;
11431;SDS011;5772;50.940;6.782;2022-10-13T14:27:35;42.27;;;40.00;;
11431;SDS011;5772;50.940;6.782;2022-10-13T14:30:01;46.47;;;43.80;;
11431;SDS011;5772;50.940;6.782;2022-10-13T14:32:27;43.77;;;41.00;;
11431;SDS011;5772;50.940;6.782;2022-10-13T14:34:53;39.37;;;37.17;;
11431;SDS011;5772;50.940;6.782;2022-10-13T14:37:18;41.17;;;38.90;;
11431;SDS011;5772;50.940;6.782;2022-10-13T14:39:44;44.13;;;41.17;;
11431;SDS011;5772;50.940;6.782;2022-10-13T14:42:09;39.30;;;36.97;;
11431;SDS011;5772;50.940;6.782;2022-10-13T14:44:35;33.10;;;31.00;;
11431;SDS011;5772;50.940;6.782;2022-10-13T14:47:00;37.87;;;35.17;;
11431;SDS011;5772;50.940;6.782;2022-10-13T14:49:27;41.53;;;38.90;;
11431;SDS011;5772;50.940;6.782;2022-10-13T14:51:52;33.00;;;30.97;;
11431;SDS011;5772;50.940;6.782;2022-10-13T14:54:18;32.17;;;30.17;;
11431;SDS011;5772;50.940;6.782;2022-10-13T14:56:43;31.37;;;29.53;;